Palessa — V2IA7 — position and weather

sailwx.info

Track history (hours):
 
Tides and Currents Weather Stations Pressure Air Temp Water Temp Dewpoint Dewpoint Depression Visibility Wind Speed Wind Dir Waves Ship Positions

Palessa

Last reported at 2015-Feb-26 23:32 UTC. Time now 2015-Mar-06 17:39 UTC.
Position N 35°60' W 005°29'.

Length 118 m; draft 5.5 m.

Type: Cargo ship. MMSI: 304255000.

Date/timePositionNaut miles runAvg speedWind from/ knotsBaromVisibWave heightAir tempDewpointWater temp
2015-Feb-26 23:32N 35°60' W 005°29'7 7.2
2015-Feb-26 22:33N 36°06' W 005°25'0 0.1
2015-Feb-26 21:30N 36°06' W 005°25'0 0.0
2015-Feb-26 20:33N 36°06' W 005°25'0 0.0
2015-Feb-26 19:33N 36°06' W 005°25'0 0.0
2015-Feb-26 18:33N 36°06' W 005°25'0 0.0
2015-Feb-26 17:33N 36°06' W 005°25'0 0.0
2015-Feb-26 16:33N 36°06' W 005°25'0 0.0
2015-Feb-26 15:33N 36°06' W 005°25'0 0.2
2015-Feb-26 14:33N 36°06' W 005°25'7 5.0
2015-Feb-26 13:06N 36°06' W 005°16'2 3.0
2015-Feb-26 12:33N 36°05' W 005°16'21413.2
2015-Feb-25 20:19N 37°01' W 000°59'1013.2
2015-Feb-25 19:33N 37°07' W 000°48'2713.5
2015-Feb-25 17:33N 37°21' W 000°19'1413.3
2015-Feb-25 16:30N 37°27' W 000°03'12812.8
2015-Feb-25 06:33N 38°31' E 002°17'1512.8
2015-Feb-25 05:24N 38°39' E 002°33'1112.9
2015-Feb-25 04:33N 38°45' E 002°45'1312.7
2015-Feb-25 03:34N 38°52' E 002°58'1312.3
2015-Feb-25 02:32N 38°58' E 003°12'1212.1
2015-Feb-25 01:33N 39°04' E 003°25'1212.2
2015-Feb-25 00:33N 39°10' E 003°39'36711.4
2015-Feb-23 16:21N 43°22' E 009°33'1214.7
2015-Feb-23 15:33N 43°29' E 009°46'1414.2
2015-Feb-23 14:33N 43°31' E 010°06'10 9.9
2015-Feb-23 13:34N 43°34' E 010°19'0 0.2
2015-Feb-23 12:33N 43°34' E 010°19'0 0.0
2015-Feb-23 11:29N 43°34' E 010°19'0 0.0
2015-Feb-23 10:33N 43°34' E 010°19'0 0.0
2015-Feb-23 09:33N 43°34' E 010°19'0 0.0
2015-Feb-23 08:33N 43°34' E 010°19'0 0.0
2015-Feb-23 07:33N 43°34' E 010°19'0 0.0
2015-Feb-23 06:33N 43°34' E 010°19'0 0.0
2015-Feb-23 05:33N 43°34' E 010°19'0 0.0
2015-Feb-23 04:33N 43°34' E 010°19'0 0.0
2015-Feb-23 03:33N 43°34' E 010°19'0 0.0
2015-Feb-23 02:33N 43°34' E 010°19'0 0.0
2015-Feb-23 01:33N 43°34' E 010°19'0 0.0
2015-Feb-23 00:33N 43°34' E 010°19'0 0.0
2015-Feb-22 23:33N 43°34' E 010°19'0 0.0
2015-Feb-22 22:33N 43°34' E 010°19'0 0.0
2015-Feb-22 21:33N 43°34' E 010°19'0 0.0
2015-Feb-22 20:33N 43°34' E 010°19'0 0.0
2015-Feb-22 19:33N 43°34' E 010°19'0 0.0
2015-Feb-22 18:29N 43°34' E 010°19'0 0.0
2015-Feb-22 17:33N 43°34' E 010°19'0 0.0
2015-Feb-22 16:33N 43°34' E 010°19'0 0.0
2015-Feb-22 15:33N 43°34' E 010°19'0 0.0
2015-Feb-22 14:33N 43°34' E 010°19'0 0.0
2015-Feb-22 13:33N 43°34' E 010°19'0 0.0
2015-Feb-22 12:33N 43°34' E 010°19'0 0.0
2015-Feb-22 11:33N 43°34' E 010°19'0 0.0
2015-Feb-22 10:33N 43°34' E 010°19'0 0.0
2015-Feb-22 09:33N 43°34' E 010°19'0 0.0
2015-Feb-22 08:33N 43°34' E 010°19'0 0.0
2015-Feb-22 07:29N 43°34' E 010°19'0 0.0
2015-Feb-22 06:33N 43°34' E 010°19'0 0.0
2015-Feb-22 05:33N 43°34' E 010°19'0 0.0
2015-Feb-22 04:33N 43°34' E 010°19'0 0.0
2015-Feb-22 03:33N 43°34' E 010°19'0 0.0
2015-Feb-22 02:33N 43°34' E 010°19'0 0.0
2015-Feb-22 01:33N 43°34' E 010°19'0 0.0
2015-Feb-22 00:33N 43°34' E 010°19'0 0.0
2015-Feb-21 23:33N 43°34' E 010°19'0 0.0
2015-Feb-21 22:29N 43°34' E 010°19'0 0.0
2015-Feb-21 21:33N 43°34' E 010°19'0 0.0
2015-Feb-21 20:33N 43°34' E 010°19'0 0.0
2015-Feb-21 19:33N 43°34' E 010°19'0 0.0
2015-Feb-21 18:33N 43°34' E 010°19'0 0.0
2015-Feb-21 17:33N 43°34' E 010°19'0 0.0
2015-Feb-21 16:33N 43°34' E 010°19'0 0.0
2015-Feb-21 15:33N 43°34' E 010°19'0 0.0
2015-Feb-21 14:33N 43°34' E 010°19'0 0.0
2015-Feb-21 13:33N 43°34' E 010°19'0 0.0
2015-Feb-21 12:33N 43°34' E 010°19'0 0.0
2015-Feb-21 11:33N 43°34' E 010°19'0 0.0
2015-Feb-21 10:33N 43°34' E 010°19'0 0.0
2015-Feb-21 09:33N 43°34' E 010°19'0 0.0
2015-Feb-21 08:33N 43°34' E 010°19'0 0.0
2015-Feb-21 07:33N 43°34' E 010°19'0 0.0
2015-Feb-21 06:33N 43°34' E 010°19'0 0.0
2015-Feb-21 05:33N 43°34' E 010°19'0 0.0
2015-Feb-21 04:33N 43°34' E 010°19'0 0.0
2015-Feb-21 03:33N 43°34' E 010°19'0 0.0
2015-Feb-21 02:33N 43°34' E 010°19'0 0.0
2015-Feb-21 01:33N 43°34' E 010°19'0 0.0
2015-Feb-21 00:33N 43°34' E 010°19'0 0.0
2015-Feb-20 23:33N 43°34' E 010°19'0 0.0
2015-Feb-20 22:33N 43°34' E 010°19'0 0.0
2015-Feb-20 21:33N 43°34' E 010°19'3 3.1
2015-Feb-20 20:33N 43°32' E 010°16'6 6.0
2015-Feb-20 19:33N 43°30' E 010°08'1413.9
2015-Feb-20 18:33N 43°44' E 010°05'1515.4
2015-Feb-20 17:33N 43°59' E 010°03'3 3.1
2015-Feb-20 16:31N 44°02' E 010°03'0 0.0
2015-Feb-20 15:19N 44°02' E 010°03'0 0.0
2015-Feb-20 13:22N 44°02' E 010°03'0 0.0
2015-Feb-20 12:28N 44°02' E 010°03'0 0.0
2015-Feb-20 11:22N 44°02' E 010°03'0 0.0
2015-Feb-20 10:28N 44°02' E 010°03'0 0.0
2015-Feb-20 09:28N 44°02' E 010°03'0 0.0
2015-Feb-20 08:28N 44°02' E 010°03'0 0.0
2015-Feb-20 07:31N 44°02' E 010°03'0 0.0
2015-Feb-20 06:28N 44°02' E 010°03'0 0.4
2015-Feb-20 05:33N 44°02' E 010°02'4 3.9
2015-Feb-20 04:33N 43°58' E 010°01'1212.1
2015-Feb-20 03:34N 43°49' E 009°49'1313.0
2015-Feb-20 02:34N 43°40' E 009°37'1313.2
2015-Feb-20 01:33N 43°31' E 009°24'37313.8
2015-Feb-18 22:33N 38°57' E 003°46'1212.1
2015-Feb-18 21:32N 38°48' E 003°35'1111.7
2015-Feb-18 20:33N 38°40' E 003°26'1111.2
2015-Feb-18 19:33N 38°31' E 003°16'  
Track history (hours):
 
Tides and Currents Weather Stations Pressure Air Temp Water Temp Dewpoint Dewpoint Depression Visibility Wind Speed Wind Dir Waves Ship Positions

Palessa

Last reported at 2015-Feb-26 23:32 UTC. Time now 2015-Mar-06 17:39 UTC.
Position N 35°60' W 005°29'.

Length 118 m; draft 5.5 m.

Type: Cargo ship. MMSI: 304255000.

Date/timePositionNaut miles runAvg speedWind from/ knotsBaromVisibWave heightAir tempDewpointWater temp
2015-Feb-26 23:32N 35°60' W 005°29'7 7.2
2015-Feb-26 22:33N 36°06' W 005°25'0 0.1
2015-Feb-26 21:30N 36°06' W 005°25'0 0.0
2015-Feb-26 20:33N 36°06' W 005°25'0 0.0
2015-Feb-26 19:33N 36°06' W 005°25'0 0.0
2015-Feb-26 18:33N 36°06' W 005°25'0 0.0
2015-Feb-26 17:33N 36°06' W 005°25'0 0.0
2015-Feb-26 16:33N 36°06' W 005°25'0 0.0
2015-Feb-26 15:33N 36°06' W 005°25'0 0.2
2015-Feb-26 14:33N 36°06' W 005°25'7 5.0
2015-Feb-26 13:06N 36°06' W 005°16'2 3.0
2015-Feb-26 12:33N 36°05' W 005°16'21413.2
2015-Feb-25 20:19N 37°01' W 000°59'1013.2
2015-Feb-25 19:33N 37°07' W 000°48'2713.5
2015-Feb-25 17:33N 37°21' W 000°19'1413.3
2015-Feb-25 16:30N 37°27' W 000°03'12812.8
2015-Feb-25 06:33N 38°31' E 002°17'1512.8
2015-Feb-25 05:24N 38°39' E 002°33'1112.9
2015-Feb-25 04:33N 38°45' E 002°45'1312.7
2015-Feb-25 03:34N 38°52' E 002°58'1312.3
2015-Feb-25 02:32N 38°58' E 003°12'1212.1
2015-Feb-25 01:33N 39°04' E 003°25'1212.2
2015-Feb-25 00:33N 39°10' E 003°39'36711.4
2015-Feb-23 16:21N 43°22' E 009°33'1214.7
2015-Feb-23 15:33N 43°29' E 009°46'1414.2
2015-Feb-23 14:33N 43°31' E 010°06'10 9.9
2015-Feb-23 13:34N 43°34' E 010°19'0 0.2
2015-Feb-23 12:33N 43°34' E 010°19'0 0.0
2015-Feb-23 11:29N 43°34' E 010°19'0 0.0
2015-Feb-23 10:33N 43°34' E 010°19'0 0.0
2015-Feb-23 09:33N 43°34' E 010°19'0 0.0
2015-Feb-23 08:33N 43°34' E 010°19'0 0.0
2015-Feb-23 07:33N 43°34' E 010°19'0 0.0
2015-Feb-23 06:33N 43°34' E 010°19'0 0.0
2015-Feb-23 05:33N 43°34' E 010°19'0 0.0
2015-Feb-23 04:33N 43°34' E 010°19'0 0.0
2015-Feb-23 03:33N 43°34' E 010°19'0 0.0
2015-Feb-23 02:33N 43°34' E 010°19'0 0.0
2015-Feb-23 01:33N 43°34' E 010°19'0 0.0
2015-Feb-23 00:33N 43°34' E 010°19'0 0.0
2015-Feb-22 23:33N 43°34' E 010°19'0 0.0
2015-Feb-22 22:33N 43°34' E 010°19'0 0.0
2015-Feb-22 21:33N 43°34' E 010°19'0 0.0
2015-Feb-22 20:33N 43°34' E 010°19'0 0.0
2015-Feb-22 19:33N 43°34' E 010°19'0 0.0
2015-Feb-22 18:29N 43°34' E 010°19'0 0.0
2015-Feb-22 17:33N 43°34' E 010°19'0 0.0
2015-Feb-22 16:33N 43°34' E 010°19'0 0.0
2015-Feb-22 15:33N 43°34' E 010°19'0 0.0
2015-Feb-22 14:33N 43°34' E 010°19'0 0.0
2015-Feb-22 13:33N 43°34' E 010°19'0 0.0
2015-Feb-22 12:33N 43°34' E 010°19'0 0.0
2015-Feb-22 11:33N 43°34' E 010°19'0 0.0
2015-Feb-22 10:33N 43°34' E 010°19'0 0.0
2015-Feb-22 09:33N 43°34' E 010°19'0 0.0
2015-Feb-22 08:33N 43°34' E 010°19'0 0.0
2015-Feb-22 07:29N 43°34' E 010°19'0 0.0
2015-Feb-22 06:33N 43°34' E 010°19'0 0.0
2015-Feb-22 05:33N 43°34' E 010°19'0 0.0
2015-Feb-22 04:33N 43°34' E 010°19'0 0.0
2015-Feb-22 03:33N 43°34' E 010°19'0 0.0
2015-Feb-22 02:33N 43°34' E 010°19'0 0.0
2015-Feb-22 01:33N 43°34' E 010°19'0 0.0
2015-Feb-22 00:33N 43°34' E 010°19'0 0.0
2015-Feb-21 23:33N 43°34' E 010°19'0 0.0
2015-Feb-21 22:29N 43°34' E 010°19'0 0.0
2015-Feb-21 21:33N 43°34' E 010°19'0 0.0
2015-Feb-21 20:33N 43°34' E 010°19'0 0.0
2015-Feb-21 19:33N 43°34' E 010°19'0 0.0
2015-Feb-21 18:33N 43°34' E 010°19'0 0.0
2015-Feb-21 17:33N 43°34' E 010°19'0 0.0
2015-Feb-21 16:33N 43°34' E 010°19'0 0.0
2015-Feb-21 15:33N 43°34' E 010°19'0 0.0
2015-Feb-21 14:33N 43°34' E 010°19'0 0.0
2015-Feb-21 13:33N 43°34' E 010°19'0 0.0
2015-Feb-21 12:33N 43°34' E 010°19'0 0.0
2015-Feb-21 11:33N 43°34' E 010°19'0 0.0
2015-Feb-21 10:33N 43°34' E 010°19'0 0.0
2015-Feb-21 09:33N 43°34' E 010°19'0 0.0
2015-Feb-21 08:33N 43°34' E 010°19'0 0.0
2015-Feb-21 07:33N 43°34' E 010°19'0 0.0
2015-Feb-21 06:33N 43°34' E 010°19'0 0.0
2015-Feb-21 05:33N 43°34' E 010°19'0 0.0
2015-Feb-21 04:33N 43°34' E 010°19'0 0.0
2015-Feb-21 03:33N 43°34' E 010°19'0 0.0
2015-Feb-21 02:33N 43°34' E 010°19'0 0.0
2015-Feb-21 01:33N 43°34' E 010°19'0 0.0
2015-Feb-21 00:33N 43°34' E 010°19'0 0.0
2015-Feb-20 23:33N 43°34' E 010°19'0 0.0
2015-Feb-20 22:33N 43°34' E 010°19'0 0.0
2015-Feb-20 21:33N 43°34' E 010°19'3 3.1
2015-Feb-20 20:33N 43°32' E 010°16'6 6.0
2015-Feb-20 19:33N 43°30' E 010°08'1413.9
2015-Feb-20 18:33N 43°44' E 010°05'1515.4
2015-Feb-20 17:33N 43°59' E 010°03'3 3.1
2015-Feb-20 16:31N 44°02' E 010°03'0 0.0
2015-Feb-20 15:19N 44°02' E 010°03'0 0.0
2015-Feb-20 13:22N 44°02' E 010°03'0 0.0
2015-Feb-20 12:28N 44°02' E 010°03'0 0.0
2015-Feb-20 11:22N 44°02' E 010°03'0 0.0
2015-Feb-20 10:28N 44°02' E 010°03'0 0.0
2015-Feb-20 09:28N 44°02' E 010°03'0 0.0
2015-Feb-20 08:28N 44°02' E 010°03'0 0.0
2015-Feb-20 07:31N 44°02' E 010°03'0 0.0
2015-Feb-20 06:28N 44°02' E 010°03'0 0.4
2015-Feb-20 05:33N 44°02' E 010°02'4 3.9
2015-Feb-20 04:33N 43°58' E 010°01'1212.1
2015-Feb-20 03:34N 43°49' E 009°49'1313.0
2015-Feb-20 02:34N 43°40' E 009°37'1313.2
2015-Feb-20 01:33N 43°31' E 009°24'37313.8
2015-Feb-18 22:33N 38°57' E 003°46'1212.1
2015-Feb-18 21:32N 38°48' E 003°35'1111.7
2015-Feb-18 20:33N 38°40' E 003°26'1111.2
2015-Feb-18 19:33N 38°31' E 003°16'  

Dump ship's entire track history